createdAt,value
2017-11-04T00:01:52.253Z,19.80
2017-11-04T00:04:20.149Z,15.27
2017-11-04T00:06:48.908Z,16.45
2017-11-04T00:09:16.930Z,16.98
2017-11-04T00:11:44.870Z,19.30
2017-11-04T00:14:12.755Z,12.30
2017-11-04T00:16:42.831Z,15.05
2017-11-04T00:19:11.489Z,14.68
2017-11-04T00:21:39.438Z,15.70
2017-11-04T00:24:07.337Z,14.05
2017-11-04T00:26:35.290Z,14.18
2017-11-04T00:29:03.182Z,14.02
2017-11-04T00:31:31.901Z,13.85
2017-11-04T00:33:59.793Z,15.40
2017-11-04T00:36:27.732Z,13.70
2017-11-04T00:38:55.693Z,15.18
2017-11-04T00:41:23.634Z,16.77
2017-11-04T00:43:51.519Z,11.45
2017-11-04T00:46:19.470Z,16.65
2017-11-04T00:48:47.353Z,12.40
2017-11-04T00:51:15.297Z,13.85
2017-11-04T00:53:43.335Z,13.52
2017-11-04T00:56:11.343Z,14.27
2017-11-04T00:58:39.228Z,16.23
2017-11-04T01:01:07.181Z,12.00
2017-11-04T01:03:35.078Z,15.15
2017-11-04T01:06:03.017Z,12.95
2017-11-04T01:08:30.904Z,14.82
2017-11-04T01:10:59.597Z,10.85
2017-11-04T01:13:27.481Z,11.63
2017-11-04T01:15:55.410Z,15.43
2017-11-04T01:18:23.289Z,15.35
2017-11-04T01:20:51.222Z,12.90
2017-11-04T01:23:19.229Z,12.48
2017-11-04T01:25:47.156Z,12.70
2017-11-04T01:28:15.039Z,16.77
2017-11-04T01:30:42.985Z,11.98
2017-11-04T01:33:10.886Z,16.90
2017-11-04T01:35:38.821Z,13.95
2017-11-04T01:38:06.705Z,16.60
2017-11-04T01:40:34.648Z,13.65
2017-11-04T01:43:02.553Z,15.63
2017-11-04T01:45:30.532Z,14.60
2017-11-04T01:47:58.520Z,13.85
2017-11-04T01:50:26.463Z,13.73
2017-11-04T01:52:54.641Z,15.40
2017-11-04T01:55:22.526Z,16.50
2017-11-04T01:57:50.513Z,12.55
2017-11-04T02:00:18.408Z,15.32
2017-11-04T02:02:46.359Z,13.45
2017-11-04T02:05:14.333Z,13.48
2017-11-04T02:07:42.358Z,13.77
2017-11-04T02:10:10.271Z,15.70
2017-11-04T02:12:38.214Z,13.70
2017-11-04T02:15:06.121Z,12.48
2017-11-04T02:17:34.072Z,13.80
2017-11-04T02:20:02.762Z,13.27
2017-11-04T02:22:31.535Z,14.15
2017-11-04T02:24:59.436Z,12.73
2017-11-04T02:27:27.376Z,12.80
2017-11-04T02:29:55.269Z,13.62
2017-11-04T02:32:23.215Z,14.13
2017-11-04T02:34:51.149Z,13.00
2017-11-04T02:37:19.085Z,16.45
2017-11-04T02:39:46.966Z,13.45
2017-11-04T02:42:15.667Z,20.08
2017-11-04T02:44:43.602Z,12.98
2017-11-04T02:47:11.537Z,13.40
2017-11-04T02:49:39.425Z,15.05
2017-11-04T02:52:07.439Z,13.88
2017-11-04T02:54:35.331Z,11.40
2017-11-04T02:57:03.212Z,11.93
2017-11-04T02:59:31.142Z,11.57
2017-11-04T03:01:59.070Z,19.27
2017-11-04T03:04:27.764Z,11.70
2017-11-04T03:06:56.443Z,14.50
2017-11-04T03:09:24.384Z,17.85
2017-11-04T03:11:52.329Z,12.93
2017-11-04T03:14:20.208Z,16.85
2017-11-04T03:16:48.143Z,12.85
2017-11-04T03:19:16.040Z,13.13
2017-11-04T03:21:44.042Z,15.60
2017-11-04T03:24:11.950Z,14.95
2017-11-04T03:26:39.907Z,16.20
2017-11-04T03:29:07.825Z,15.93
2017-11-04T03:31:35.773Z,14.18
2017-11-04T03:34:03.685Z,15.85
2017-11-04T03:36:31.649Z,19.33
2017-11-04T03:38:59.540Z,16.25
2017-11-04T03:41:27.502Z,17.60
2017-11-04T03:43:59.051Z,14.60
2017-11-04T03:46:26.986Z,13.65
2017-11-04T03:48:54.895Z,14.20
2017-11-04T03:51:22.839Z,15.40
2017-11-04T03:53:50.735Z,13.20
2017-11-04T03:56:18.667Z,14.38
2017-11-04T03:58:46.560Z,14.23
2017-11-04T04:01:14.494Z,17.87
2017-11-04T04:03:42.380Z,13.95
2017-11-04T04:06:10.305Z,16.98
2017-11-04T04:08:38.178Z,15.07
2017-11-04T04:11:06.862Z,18.10
2017-11-04T04:13:35.994Z,16.48
2017-11-04T04:16:03.882Z,16.48
2017-11-04T04:18:31.801Z,14.50
2017-11-04T04:20:59.689Z,15.68
2017-11-04T04:23:27.637Z,15.50
2017-11-04T04:25:55.522Z,20.37
2017-11-04T04:28:23.459Z,16.52
2017-11-04T04:30:52.104Z,15.50
2017-11-04T04:33:20.033Z,15.63
2017-11-04T04:35:47.921Z,13.20
2017-11-04T04:38:16.680Z,16.17
2017-11-04T04:40:45.380Z,14.20
2017-11-04T04:43:13.509Z,20.40
2017-11-04T04:45:41.447Z,15.35
2017-11-04T04:48:09.427Z,18.65
2017-11-04T04:50:37.321Z,17.50
2017-11-04T04:53:05.260Z,16.33
2017-11-04T04:55:33.150Z,14.95
2017-11-04T04:58:01.077Z,19.65
2017-11-04T05:00:28.986Z,16.65
2017-11-04T05:02:56.925Z,17.02
2017-11-04T05:05:24.841Z,15.65
2017-11-04T05:07:52.797Z,17.73
2017-11-04T05:10:20.685Z,14.27
2017-11-04T05:12:48.848Z,17.45
2017-11-04T05:15:16.731Z,17.50
2017-11-04T05:17:44.658Z,17.20
2017-11-04T05:20:12.532Z,18.10
2017-11-04T05:22:40.439Z,18.98
2017-11-04T05:25:08.314Z,18.00
2017-11-04T05:27:37.068Z,14.77
2017-11-04T05:30:04.977Z,18.92
2017-11-04T05:32:33.679Z,18.33
2017-11-04T05:35:01.544Z,17.35
2017-11-04T05:37:29.502Z,17.62
2017-11-04T05:39:58.153Z,16.25
2017-11-04T05:42:30.624Z,18.02
2017-11-04T05:44:58.503Z,18.95
2017-11-04T05:47:26.432Z,13.93
2017-11-04T05:49:54.358Z,20.10
2017-11-04T05:52:22.283Z,18.20
2017-11-04T05:54:50.162Z,17.15
2017-11-04T05:57:18.081Z,15.75
2017-11-04T05:59:46.013Z,17.08
2017-11-04T06:02:13.984Z,17.00
2017-11-04T06:04:41.913Z,17.83
2017-11-04T06:07:09.839Z,21.42
2017-11-04T06:09:37.768Z,20.40
2017-11-04T06:12:09.594Z,19.17
2017-11-04T06:14:37.469Z,19.12
2017-11-04T06:17:05.393Z,17.83
2017-11-04T06:19:33.264Z,16.75
2017-11-04T06:22:01.310Z,21.17
2017-11-04T06:24:29.216Z,20.00
2017-11-04T06:26:57.198Z,18.17
2017-11-04T06:29:25.078Z,16.37
2017-11-04T06:31:53.011Z,17.00
2017-11-04T06:34:20.905Z,18.20
2017-11-04T06:36:48.835Z,18.17
2017-11-04T06:39:16.710Z,18.58
2017-11-04T06:41:44.600Z,16.73
2017-11-04T06:44:13.287Z,18.48
2017-11-04T06:46:41.969Z,20.17
2017-11-04T06:49:09.908Z,19.60
2017-11-04T06:51:37.791Z,17.25
2017-11-04T06:54:05.750Z,18.15
2017-11-04T06:56:33.628Z,20.65
2017-11-04T06:59:01.563Z,17.33
2017-11-04T07:01:29.442Z,20.37
2017-11-04T07:04:04.582Z,21.42
2017-11-04T07:06:32.479Z,17.83
2017-11-04T07:09:00.411Z,20.15
2017-11-04T07:11:28.292Z,18.77
2017-11-04T07:13:56.228Z,20.55
2017-11-04T07:16:24.092Z,21.42
2017-11-04T07:18:52.033Z,20.08
2017-11-04T07:21:22.589Z,21.12
2017-11-04T07:23:51.070Z,21.50
2017-11-04T07:26:18.956Z,19.05
2017-11-04T07:28:46.878Z,22.10
2017-11-04T07:31:14.780Z,19.30
2017-11-04T07:33:42.781Z,23.08
2017-11-04T07:36:10.675Z,20.30
2017-11-04T07:38:41.135Z,24.80
2017-11-04T07:41:09.019Z,24.27
2017-11-04T07:43:36.947Z,27.20
2017-11-04T07:46:05.595Z,22.62
2017-11-04T07:48:33.606Z,26.80
2017-11-04T07:51:01.505Z,28.67
2017-11-04T07:53:29.546Z,22.60
2017-11-04T07:55:57.428Z,31.83
2017-11-04T07:58:25.354Z,34.47
2017-11-04T08:00:53.264Z,37.70
2017-11-04T08:03:25.788Z,40.33
2017-11-04T08:05:54.594Z,52.83
2017-11-04T08:08:22.631Z,55.20
2017-11-04T08:10:50.511Z,54.83
2017-11-04T08:13:23.447Z,49.25
2017-11-04T08:15:55.233Z,52.97
2017-11-04T08:18:25.368Z,51.90
2017-11-04T08:20:53.283Z,54.10
2017-11-04T08:23:23.465Z,46.60
2017-11-04T08:25:52.168Z,49.92
2017-11-04T08:28:20.134Z,59.47
2017-11-04T08:30:51.349Z,47.00
2017-11-04T08:33:27.778Z,49.15
2017-11-04T08:35:55.658Z,54.15
2017-11-04T08:38:23.583Z,53.20
2017-11-04T08:40:51.528Z,47.25
2017-11-04T08:43:19.520Z,44.17
2017-11-04T08:45:47.451Z,47.47
2017-11-04T08:48:15.440Z,46.58
2017-11-04T08:50:44.106Z,49.55
2017-11-04T08:53:12.125Z,48.55
2017-11-04T08:55:40.063Z,48.50
2017-11-04T08:58:07.932Z,54.50
2017-11-04T09:00:36.643Z,46.75
2017-11-04T09:03:06.551Z,44.45
2017-11-04T09:05:34.493Z,43.42
2017-11-04T09:08:03.144Z,41.95
2017-11-04T09:10:31.085Z,47.20
2017-11-04T09:12:59.013Z,37.60
2017-11-04T09:15:26.961Z,37.70
2017-11-04T09:17:54.854Z,41.20
2017-11-04T09:20:23.556Z,39.00
2017-11-04T09:22:51.457Z,35.53
2017-11-04T09:25:19.402Z,36.20
2017-11-04T09:27:47.293Z,37.50
2017-11-04T09:30:15.229Z,44.83
2017-11-04T09:32:49.497Z,34.27
2017-11-04T09:35:17.789Z,39.10
2017-11-04T09:37:45.688Z,34.40
2017-11-04T09:40:14.421Z,38.67
2017-11-04T09:42:42.319Z,34.10
2017-11-04T09:45:10.277Z,39.33
2017-11-04T09:47:38.190Z,34.57
2017-11-04T09:50:06.914Z,30.03
2017-11-04T09:52:35.958Z,35.73
2017-11-04T09:55:04.730Z,34.30
2017-11-04T09:57:32.618Z,29.37
2017-11-04T10:00:00.529Z,33.60
2017-11-04T10:02:28.581Z,40.20
2017-11-04T10:04:56.471Z,33.67
2017-11-04T10:07:24.407Z,32.60
2017-11-04T10:09:52.348Z,39.90
2017-11-04T10:12:20.289Z,40.57
2017-11-04T10:14:48.220Z,29.20
2017-11-04T10:17:16.228Z,31.23
2017-11-04T10:19:44.261Z,34.67
2017-11-04T10:22:12.283Z,32.17
2017-11-04T10:24:40.161Z,33.40
2017-11-04T10:27:08.072Z,30.40
2017-11-04T10:29:36.088Z,34.67
2017-11-04T10:32:04.038Z,27.53
2017-11-04T10:34:31.966Z,29.50
2017-11-04T10:36:59.922Z,33.47
2017-11-04T10:39:27.929Z,25.13
2017-11-04T10:41:55.884Z,31.53
2017-11-04T10:44:23.793Z,30.10
2017-11-04T10:46:51.731Z,28.87
2017-11-04T10:49:19.683Z,29.20
2017-11-04T10:51:48.800Z,31.13
2017-11-04T10:54:16.745Z,29.33
2017-11-04T10:56:44.714Z,33.40
2017-11-04T10:59:13.428Z,28.70
2017-11-04T11:01:41.296Z,30.10
2017-11-04T11:04:09.258Z,29.40
2017-11-04T11:06:37.946Z,30.43
2017-11-04T11:09:05.902Z,27.80
2017-11-04T11:11:33.790Z,35.50
2017-11-04T11:14:01.736Z,29.10
2017-11-04T11:16:29.640Z,34.45
2017-11-04T11:18:57.571Z,34.77
2017-11-04T11:21:26.237Z,36.28
2017-11-04T11:23:54.270Z,38.30
2017-11-04T11:26:22.163Z,34.47
2017-11-04T11:28:50.100Z,42.30
2017-11-04T11:31:18.044Z,37.72
2017-11-04T11:33:45.989Z,35.35
2017-11-04T11:36:13.891Z,29.73
2017-11-04T11:38:41.859Z,36.25
2017-11-04T11:41:10.527Z,35.95
2017-11-04T11:43:38.481Z,33.07
2017-11-04T11:46:06.376Z,36.23
2017-11-04T11:48:34.313Z,30.12
2017-11-04T11:51:02.265Z,33.65
2017-11-04T11:53:30.226Z,33.97
2017-11-04T11:55:58.144Z,30.70
2017-11-04T11:58:26.110Z,34.40
2017-11-04T12:00:54.048Z,36.30
2017-11-04T12:03:22.006Z,31.33
2017-11-04T12:05:49.906Z,31.05
2017-11-04T12:08:17.918Z,37.58
2017-11-04T12:10:45.807Z,28.35
2017-11-04T12:13:14.342Z,33.05
2017-11-04T12:15:42.863Z,30.12
2017-11-04T12:18:10.817Z,36.88
2017-11-04T12:20:38.765Z,33.42
2017-11-04T12:23:06.763Z,35.53
2017-11-04T12:25:34.764Z,29.87
2017-11-04T12:28:02.668Z,31.37
2017-11-04T12:30:30.622Z,34.83
2017-11-04T12:32:58.537Z,36.90
2017-11-04T12:35:26.484Z,28.75
2017-11-04T12:37:54.379Z,40.58
2017-11-04T12:40:22.354Z,36.80
2017-11-04T12:42:50.255Z,33.58
2017-11-04T12:45:18.219Z,36.60
2017-11-04T12:47:46.123Z,33.15
2017-11-04T12:50:14.077Z,31.80
2017-11-04T12:52:42.075Z,29.97
2017-11-04T12:55:10.033Z,32.50
2017-11-04T12:57:37.925Z,31.17
2017-11-04T13:00:06.633Z,27.70
2017-11-04T13:02:34.521Z,28.93
2017-11-04T13:05:02.520Z,28.08
2017-11-04T13:07:30.417Z,29.93
2017-11-04T13:09:58.364Z,30.55
2017-11-04T13:12:26.324Z,31.27
2017-11-04T13:14:54.749Z,28.67
2017-11-04T13:17:23.742Z,26.90
2017-11-04T13:19:51.755Z,27.73
2017-11-04T13:22:23.277Z,30.63
2017-11-04T13:24:51.202Z,25.90
2017-11-04T13:27:19.094Z,29.97
2017-11-04T13:29:47.818Z,27.80
2017-11-04T13:32:15.701Z,25.40
2017-11-04T13:34:43.658Z,29.83
2017-11-04T13:37:11.550Z,28.03
2017-11-04T13:39:39.517Z,31.20
2017-11-04T13:42:07.404Z,25.10
2017-11-04T13:44:35.397Z,25.17
2017-11-04T13:47:03.290Z,32.58
2017-11-04T13:49:31.295Z,29.57
2017-11-04T13:51:59.201Z,27.60
2017-11-04T13:54:27.912Z,28.13
2017-11-04T13:56:55.797Z,26.67
2017-11-04T13:59:23.772Z,35.63
2017-11-04T14:01:51.663Z,27.33
2017-11-04T14:04:19.620Z,26.67
2017-11-04T14:06:47.503Z,32.03
2017-11-04T14:09:15.605Z,21.80
2017-11-04T14:11:43.506Z,23.40
2017-11-04T14:14:11.586Z,26.10
2017-11-04T14:16:39.472Z,30.13
2017-11-04T14:19:07.599Z,26.50
2017-11-04T14:21:35.653Z,20.87
2017-11-04T14:24:03.681Z,28.53
2017-11-04T14:26:31.618Z,21.93
2017-11-04T14:29:00.365Z,23.73
2017-11-04T14:31:28.486Z,26.53
2017-11-04T14:33:56.422Z,24.97
2017-11-04T14:36:24.300Z,21.60
2017-11-04T14:38:52.300Z,21.67
2017-11-04T14:41:20.186Z,19.60
2017-11-04T14:43:56.678Z,22.50
2017-11-04T14:46:24.565Z,18.90
2017-11-04T14:48:52.517Z,19.23
2017-11-04T14:51:20.422Z,18.87
2017-11-04T14:53:49.130Z,17.03
2017-11-04T14:56:18.808Z,16.57
2017-11-04T14:58:46.771Z,16.33
2017-11-04T15:01:14.680Z,14.57
2017-11-04T15:03:44.074Z,19.17
2017-11-04T15:06:12.768Z,16.73
2017-11-04T15:08:41.604Z,17.40
2017-11-04T15:11:09.612Z,17.10
2017-11-04T15:13:37.507Z,15.70
2017-11-04T15:16:06.235Z,20.77
2017-11-04T15:18:34.146Z,22.30
2017-11-04T15:21:02.106Z,20.40
2017-11-04T15:23:30.801Z,16.60
2017-11-04T15:25:59.495Z,14.93
2017-11-04T15:28:27.393Z,18.77
2017-11-04T15:30:55.357Z,15.82
2017-11-04T15:33:23.411Z,16.10
2017-11-04T15:35:51.412Z,17.48
2017-11-04T15:38:19.307Z,14.38
2017-11-04T15:40:47.256Z,17.25
2017-11-04T15:43:15.159Z,16.87
2017-11-04T15:45:43.118Z,18.45
2017-11-04T15:48:11.121Z,17.27
2017-11-04T15:50:39.077Z,18.80
2017-11-04T15:53:06.980Z,16.15
2017-11-04T15:55:34.927Z,14.65
2017-11-04T15:58:03.603Z,19.23
2017-11-04T16:00:31.568Z,12.95
2017-11-04T16:02:59.658Z,13.80
2017-11-04T16:05:28.381Z,15.93
2017-11-04T16:07:56.270Z,15.63
2017-11-04T16:10:24.217Z,16.02
2017-11-04T16:12:52.244Z,13.90
2017-11-04T16:15:20.953Z,19.98
2017-11-04T16:17:48.840Z,18.73
2017-11-04T16:20:16.780Z,17.00
2017-11-04T16:22:45.431Z,18.27
2017-11-04T16:25:13.357Z,19.40
2017-11-04T16:27:42.276Z,18.58
2017-11-04T16:30:10.218Z,21.27
2017-11-04T16:32:38.355Z,24.90
2017-11-04T16:35:06.311Z,21.25
2017-11-04T16:37:34.212Z,18.67
2017-11-04T16:40:02.987Z,18.12
2017-11-04T16:42:30.870Z,22.60
2017-11-04T16:44:59.033Z,22.52
2017-11-04T16:47:27.769Z,19.52
2017-11-04T16:49:55.743Z,19.27
2017-11-04T16:52:23.654Z,32.88
2017-11-04T16:54:51.600Z,23.08
2017-11-04T16:57:19.498Z,26.15
2017-11-04T16:59:48.206Z,25.92
2017-11-04T17:02:16.172Z,21.67
2017-11-04T17:04:44.880Z,27.13
2017-11-04T17:07:12.817Z,26.15
2017-11-04T17:09:40.760Z,23.67
2017-11-04T17:12:08.676Z,30.08
2017-11-04T17:14:36.602Z,21.33
2017-11-04T17:17:04.592Z,27.05
2017-11-04T17:19:33.279Z,21.77
2017-11-04T17:22:01.924Z,24.40
2017-11-04T17:24:29.852Z,26.92
2017-11-04T17:26:57.745Z,27.67
2017-11-04T17:29:26.468Z,28.65
2017-11-04T17:31:54.357Z,24.40
2017-11-04T17:34:22.278Z,23.38
2017-11-04T17:36:50.213Z,22.30
2017-11-04T17:39:18.098Z,20.95
2017-11-04T17:41:46.011Z,25.33
2017-11-04T17:44:13.891Z,21.30
2017-11-04T17:46:41.853Z,21.15
2017-11-04T17:49:09.737Z,22.33
2017-11-04T17:51:37.692Z,23.65
2017-11-04T17:54:05.682Z,23.90
2017-11-04T17:56:33.644Z,19.45
2017-11-04T17:59:01.582Z,21.12
2017-11-04T18:01:29.541Z,18.33
2017-11-04T18:03:57.445Z,20.30
2017-11-04T18:06:25.407Z,18.15
2017-11-04T18:08:53.289Z,16.58
2017-11-04T18:11:21.257Z,17.35
2017-11-04T18:13:49.158Z,18.83
2017-11-04T18:16:17.101Z,24.48
2017-11-04T18:18:44.980Z,16.85
2017-11-04T18:21:13.693Z,17.73
2017-11-04T18:23:41.614Z,15.40
2017-11-04T18:26:09.573Z,15.70
2017-11-04T18:28:37.469Z,14.18
2017-11-04T18:31:06.178Z,19.58
2017-11-04T18:33:34.068Z,19.77
2017-11-04T18:36:02.007Z,21.23
2017-11-04T18:38:29.933Z,23.10
2017-11-04T18:40:57.873Z,16.80
2017-11-04T18:43:25.758Z,15.98
2017-11-04T18:45:53.693Z,16.92
2017-11-04T18:48:21.585Z,16.73
2017-11-04T18:50:49.515Z,15.07
2017-11-04T18:53:18.165Z,16.75
2017-11-04T18:55:46.110Z,18.48
2017-11-04T18:58:14.008Z,23.35
2017-11-04T19:00:41.946Z,19.10
2017-11-04T19:03:09.850Z,17.30
2017-11-04T19:05:37.799Z,17.10
2017-11-04T19:08:05.688Z,20.33
2017-11-04T19:10:33.624Z,19.20
2017-11-04T19:13:01.513Z,19.98
2017-11-04T19:15:29.454Z,15.30
2017-11-04T19:17:58.144Z,15.30
2017-11-04T19:20:26.046Z,18.77
2017-11-04T19:22:54.181Z,17.10
2017-11-04T19:25:22.077Z,19.87
2017-11-04T19:27:51.336Z,16.73
2017-11-04T19:30:19.242Z,16.55
2017-11-04T19:32:49.411Z,13.52
2017-11-04T19:35:17.319Z,15.48
2017-11-04T19:37:45.257Z,15.82
2017-11-04T19:40:13.288Z,18.87
2017-11-04T19:42:48.807Z,16.73
2017-11-04T19:45:16.710Z,13.45
2017-11-04T19:47:44.694Z,16.42
2017-11-04T19:50:12.632Z,13.88
2017-11-04T19:52:43.802Z,17.10
2017-11-04T19:55:11.707Z,18.70
2017-11-04T19:57:39.648Z,19.52
2017-11-04T20:00:07.556Z,17.93
2017-11-04T20:02:35.634Z,18.35
2017-11-04T20:05:03.582Z,13.02
2017-11-04T20:07:31.532Z,15.38
2017-11-04T20:10:00.245Z,15.40
2017-11-04T20:12:28.230Z,14.32
2017-11-04T20:15:01.093Z,15.07
2017-11-04T20:17:31.904Z,15.77
2017-11-04T20:20:01.418Z,15.73
2017-11-04T20:22:30.871Z,11.73
2017-11-04T20:25:01.272Z,12.87
2017-11-04T20:27:29.965Z,13.40
2017-11-04T20:29:59.185Z,18.80
2017-11-04T20:32:27.575Z,16.67
2017-11-04T20:34:56.072Z,10.87
2017-11-04T20:37:24.565Z,13.52
2017-11-04T20:39:53.643Z,11.70
2017-11-04T20:42:22.003Z,14.95
2017-11-04T20:44:50.808Z,16.03
2017-11-04T20:47:19.005Z,13.43
2017-11-04T20:49:47.937Z,14.40
2017-11-04T20:52:16.230Z,16.10
2017-11-04T20:54:44.341Z,12.03
2017-11-04T20:57:13.189Z,11.15
2017-11-04T20:59:42.098Z,15.30
2017-11-04T21:02:12.225Z,14.70
2017-11-04T21:04:40.950Z,17.20
2017-11-04T21:07:09.767Z,13.00
2017-11-04T21:09:38.533Z,10.47
2017-11-04T21:12:07.791Z,14.87
2017-11-04T21:14:36.686Z,12.53
2017-11-04T21:17:05.611Z,15.50
2017-11-04T21:19:34.006Z,13.40
2017-11-04T21:22:02.753Z,16.17
2017-11-04T21:24:31.187Z,11.60
2017-11-04T21:26:59.481Z,14.43
2017-11-04T21:29:28.389Z,12.77
2017-11-04T21:31:56.697Z,13.70
2017-11-04T21:34:25.028Z,14.90
2017-11-04T21:36:54.214Z,13.65
2017-11-04T21:39:24.244Z,11.90
2017-11-04T21:41:52.976Z,14.85
2017-11-04T21:44:22.049Z,13.60
2017-11-04T21:46:50.414Z,12.80
2017-11-04T21:49:18.967Z,15.05
2017-11-04T21:51:48.777Z,11.73
2017-11-04T21:54:17.194Z,13.95
2017-11-04T21:56:45.705Z,14.82
2017-11-04T21:59:14.532Z,11.73
2017-11-04T22:01:42.826Z,13.85
2017-11-04T22:04:11.460Z,13.10
2017-11-04T22:06:40.012Z,13.45
2017-11-04T22:09:08.358Z,16.62
2017-11-04T22:11:37.283Z,13.93
2017-11-04T22:14:05.246Z,13.82
2017-11-04T22:16:38.919Z,13.38
2017-11-04T22:19:13.031Z,18.58
2017-11-04T22:21:42.864Z,14.70
2017-11-04T22:24:12.060Z,15.80
2017-11-04T22:26:41.271Z,13.27
2017-11-04T22:29:10.230Z,13.23
2017-11-04T22:31:38.812Z,13.67
2017-11-04T22:34:07.571Z,19.42
2017-11-04T22:36:36.508Z,12.17
2017-11-04T22:39:05.865Z,14.20
2017-11-04T22:41:35.165Z,16.58
2017-11-04T22:44:05.576Z,20.10
2017-11-04T22:46:36.047Z,16.12
2017-11-04T22:49:05.830Z,13.60
2017-11-04T22:51:35.870Z,17.15
2017-11-04T22:54:04.052Z,14.35
2017-11-04T22:56:32.072Z,15.57
2017-11-04T22:58:59.975Z,13.30
2017-11-04T23:01:28.017Z,16.98
2017-11-04T23:03:55.909Z,14.57
2017-11-04T23:06:23.840Z,17.60
2017-11-04T23:08:51.768Z,18.20
2017-11-04T23:11:19.738Z,19.27
2017-11-04T23:13:47.838Z,16.67
2017-11-04T23:16:16.551Z,14.40
2017-11-04T23:18:44.476Z,19.35
2017-11-04T23:21:15.338Z,16.65
2017-11-04T23:23:44.430Z,19.77
2017-11-04T23:26:13.118Z,16.33
2017-11-04T23:28:41.789Z,18.10
2017-11-04T23:31:09.733Z,18.65
2017-11-04T23:33:39.823Z,19.55
2017-11-04T23:36:09.870Z,20.08
2017-11-04T23:38:37.763Z,15.38
2017-11-04T23:41:08.372Z,15.30
2017-11-04T23:43:38.872Z,17.05
2017-11-04T23:46:09.407Z,19.15
2017-11-04T23:48:37.306Z,17.20
2017-11-04T23:51:05.258Z,20.15
2017-11-04T23:53:35.356Z,18.00
2017-11-04T23:56:05.337Z,19.42
2017-11-04T23:58:35.686Z,21.10
